Morse Bluff, Nebraska
Current Conditions -  °F | °C
As of 9:35 PM on Sunday 21 Dec 2014 (Local Time) from KFET Reporting Station
Haze Haze  
Wind Chill: 35°   Ceiling: 400
Heat Index: 42°   Visibility: 5mi
Dew Point: 42°   Wind: 14mph
Humidity: 97%   Direction: 150°SSE
Pressure: 29.63"   Gusts: NA
Location:  41.43°N, 96.77°W
Report Text: KFET 220335Z AUTO 15012KT 5SM BR OVC004 06/05 A2963 RMK AO2 T00580053
Loading
Personal Weather Stations






























Interactive Weather Map New forecast layout! Learn more

10-Day Weather Forecast

Advertisements
Track Severe Weather on mobile